Home > Products > Valid Products > TAF

000
FTUS46 KSTO 010800 AAA
TAFRDD
TAF AMD
KRDD 010859Z 0109/0206 00000KT 1/2SM FG VV001
      TEMPO 0109/0112 2SM BR SCT001 BKN025
     FM011200 VRB04KT 2SM BR SCT001 BKN025
      TEMPO 0112/0116 P6SM NSW
     FM011600 VRB05KT P6SM VCSH SCT025 BKN050
     FM011900 19006KT P6SM VCSH SCT025 BKN050
     FM020100 VRB04KT P6SM SCT250=



000
FTUS46 KSTO 010500
TAFSCK
TAF
KSCK 010527Z 0106/0206 14005KT P6SM VCSH BKN020 OVC035
      TEMPO 0106/0110 3SM -SHRA BKN012
     FM011700 29007KT P6SM VCSH SCT030 BKN060
     FM020200 29007KT P6SM SCT250=



000
FTUS46 KSTO 010500
TAFRDD
TAF
KRDD 010527Z 0106/0206 VRB05KT P6SM SCT050 OVC120
      TEMPO 0114/0118 5SM -SHRA BKN015
     FM011900 19007KT P6SM VCSH SCT025 BKN050
     FM020100 VRB04KT P6SM SCT250=



000
FTUS46 KSTO 010500
TAFRBL
TAF
KRBL 010527Z 0106/0206 33004KT P6SM SCT050 OVC120
      TEMPO 0114/0118 5SM -SHRA BKN015
     FM011900 16008KT P6SM VCSH SCT025 BKN050
     FM020100 VRB04KT P6SM SCT250=



000
FTUS46 KSTO 010500
TAFSMF
TAF
KSMF 010527Z 0106/0206 17005KT P6SM VCSH BKN015 BKN030
      TEMPO 0106/0110 4SM -SHRA SCT015 OVC025
     FM011700 19007KT P6SM VCSH SCT030 BKN060
     FM020100 VRB04KT P6SM SCT250=



000
FTUS46 KSTO 010500
TAFMHR
TAF
KMHR 010527Z 0106/0206 14005KT P6SM VCSH BKN012 OVC030
      TEMPO 0106/0110 3SM -SHRA BKN008
     FM011700 15007KT P6SM VCSH SCT030 BKN060
     FM020100 VRB04KT P6SM SCT250=



000
FTUS46 KSTO 010500
TAFSAC
TAF
KSAC 010527Z 0106/0206 VRB04KT P6SM VCSH BKN015 BKN035
      TEMPO 0106/0110 4SM -SHRA SCT015 OVC025
     FM011700 19007KT P6SM VCSH SCT030 BKN060
     FM020100 VRB04KT P6SM SCT250=



000
FTUS46 KSTO 010300 AAA
TAFSAC
TAF AMD
KSAC 010331Z 0104/0124 VRB04KT P6SM SCT010 BKN090
      TEMPO 0104/0108 4SM -SHRA SCT007 BKN010
     FM010800 VRB04KT P6SM VCSH BKN010 OVC040
      TEMPO 0108/0112 4SM -SHRA BR BKN005
     FM011700 21007KT P6SM VCSH SCT025 BKN050=



000
FTUS46 KSTO 010300 AAA
TAFSAC
TAF AMD
KSAC 010331Z 0104/0124 VRB04KT P6SM SCT010 BKN090
      TEMPO 0104/0108 4SM -SHRA SCT007 BKN010
     FM010800 VRB04KT P6SM VCSH BKN010 OVC040
      TEMPO 0108/0112 4SM -SHRA BR BKN005
     FM011700 21007KT P6SM VCSH SCT025 BKN050=



000
FTUS46 KSTO 010000 AAA
TAFSMF
TAF AMD
KSMF 010047Z 0101/0124 15005KT P6SM VCSH SCT015 OVC040
      TEMPO 0101/0105 4SM -SHRA BKN005 BKN015
     FM010600 VRB04KT P6SM VCSH BKN015 OVC040
     FM011700 19007KT P6SM VCSH SCT025 BKN050=



000
FTUS46 KSTO 312300 CCA
TAFSCK
TAF COR
KSCK 312359Z 0100/0124 27006KT P6SM VCSH SCT015 OVC035
      TEMPO 0100/0104 27013G20KT 3SM -SHRA BKN015 OVC030
     FM010600 VRB04KT P6SM VCSH BKN020 OVC035
     FM011700 29007KT P6SM VCSH SCT025 BKN050=



000
FTUS46 KSTO 312300
TAFRDD
TAF
KRDD 312327Z 0100/0124 VRB05KT P6SM SCT015 BKN050 OVC100
      TEMPO 0100/0104 -SHRA BKN015
     FM011100 VRB05KT P6SM VCSH BKN020 BKN040
      TEMPO 0112/0116 5SM -SHRA BKN011
     FM011900 19007KT P6SM VCSH SCT025 BKN050=



000
FTUS46 KSTO 312300
TAFSCK
TAF
KSCK 312327Z 0100/0124 27006KT P6SM VCSH SCT015 OVC035
      TEMPO 0100/0104 3SM -SHRA BKN015 OVC030
     FM010600 VRB04KT P6SM VCSH BKN020 OVC035
     FM011700 29007KT P6SM VCSH SCT025 BKN050=



000
FTUS46 KSTO 312300
TAFSMF
TAF
KSMF 312327Z 0100/0124 VRB05KT P6SM VCSH SCT025 OVC050
      TEMPO 0100/0104 4SM -SHRA BKN025
     FM010600 VRB04KT P6SM VCSH BKN025 OVC040
     FM011700 19007KT P6SM VCSH SCT025 BKN050=



000
FTUS46 KSTO 312300
TAFSAC
TAF
KSAC 312327Z 0100/0124 VRB04KT P6SM VCSH SCT025 OVC050
      TEMPO 0100/0104 4SM -SHRA BKN025
     FM010600 VRB04KT P6SM VCSH BKN025 OVC040
     FM011700 21007KT P6SM VCSH SCT025 BKN050=



000
FTUS46 KSTO 312300
TAFRBL
TAF
KRBL 312327Z 0100/0124 34006KT P6SM VCSH SCT015 BKN050 OVC090
      TEMPO 0100/0104 6SM -SHRA SCT007 BKN015
     FM011100 VRB05KT P6SM VCSH BKN025 BKN040
      TEMPO 0112/0116 5SM -SHRA BKN015
     FM011900 16008KT P6SM VCSH SCT025 BKN050=



000
FTUS46 KSTO 312300
TAFMHR
TAF
KMHR 312327Z 0100/0124 VRB05KT P6SM -SHRA SCT015 OVC040
      TEMPO 0100/0104 4SM -SHRA BKN015 OVC030
     FM010600 VRB04KT P6SM VCSH BKN020 OVC035
     FM011700 21007KT P6SM VCSH SCT025 BKN050=



000
FTUS46 KSTO 312100 AAA
TAFSCK
TAF AMD
KSCK 312125Z 3121/0118 28008KT P6SM -RA SCT050 OVC080
      TEMPO 3123/0102 3SM RA OVC025
     FM010300 25011KT P6SM -SHRA OVC050
     FM011000 17007KT P6SM SCT100=



000
FTUS46 KSTO 312100 AAA
TAFSAC
TAF AMD
KSAC 312125Z 3121/0118 21009KT P6SM -RA OVC050
      TEMPO 3122/0101 3SM RA OVC015
     FM010300 19007KT P6SM -SHRA OVC050
     FM011200 17007KT P6SM SCT100=



000
FTUS46 KSTO 312100 AAA
TAFMHR
TAF AMD
KMHR 312125Z 3121/0118 21008KT P6SM -RA OVC050
      TEMPO 3123/0101 3SM RA OVC015
     FM010300 16007KT P6SM -SHRA OVC050
     FM011200 17007KT P6SM SCT100=



000
FTUS46 KSTO 312100 AAA
TAFSMF
TAF AMD
KSMF 312125Z 3121/0118 19010KT P6SM -RA BKN040 OVC070
      TEMPO 3122/0101 3SM -RA OVC015
     FM010300 16007KT P6SM -SHRA OVC050
     FM011200 17007KT P6SM SCT100=



000
FTUS46 KSTO 311700 RRA
TAFSMF
TAF
KSMF 311742Z 3118/0118 19010KT P6SM -RA BKN050 OVC090
      TEMPO 3121/0101 3SM -RA OVC015
     FM010300 16007KT P6SM -SHRA OVC050
     FM011200 17007KT P6SM SCT100=



000
FTUS46 KSTO 311700 RRA
TAFRBL
TAF
KRBL 311742Z 3118/0118 18008KT 6SM -RA OVC050
      TEMPO 3118/3120 01008KT 2SM RA OVC020
     FM312100 18008KT P6SM VCSH SCT050 BKN100
      TEMPO 3122/0101 3SM -TSRA SCT010 BKN025CB OVC050
     FM010600 VRB05KT P6SM VCSH BKN030 BKN100=



000
FTUS46 KSTO 311700 RRA
TAFMHR
TAF
KMHR 311742Z 3118/0118 14006KT P6SM BKN100
     FM311900 21008KT P6SM -RA OVC050
      TEMPO 3121/0101 3SM RA OVC015
     FM010300 16007KT P6SM -SHRA OVC050
     FM011200 17007KT P6SM SCT100=



000
FTUS46 KSTO 311700 RRA
TAFSCK
TAF
KSCK 311742Z 3118/0118 VRB05KT P6SM BKN150
     FM312100 30009KT P6SM -RA OVC050
      TEMPO 3121/0101 3SM RA OVC015
     FM010300 25011KT P6SM -SHRA OVC050
     FM011000 17007KT P6SM SCT100=



000
FTUS46 KSTO 311700 RRA
TAFSAC
TAF
KSAC 311742Z 3118/0118 21009KT P6SM -RA OVC050
      TEMPO 3121/0101 3SM RA OVC015
     FM010300 19007KT P6SM -SHRA OVC050
     FM011200 17007KT P6SM SCT100=



000
FTUS46 KSTO 311700 RRA
TAFRDD
TAF
KRDD 311742Z 3118/0118 18008KT 6SM -RA OVC050
      TEMPO 3118/3120 35006KT 4SM RA BKN015
     FM312100 18008KT P6SM VCSH SCT050 BKN100
      TEMPO 3122/0101 3SM -TSRA SCT010 BKN025CB OVC050
     FM010200 17005KT P6SM -SHRA OVC050
     FM010600 VRB04KT P6SM VCSH BKN030 BKN100=



000
FTUS46 KSTO 311100
TAFRBL
TAF
KRBL 311121Z 3112/0112 16012KT P6SM -RA OVC050
      TEMPO 3115/3118 4SM RA OVC015
     FM312200 16008KT P6SM -SHRA SCT020 OVC050
     FM010200 17005KT P6SM -SHRA OVC050
     FM010600 VRB05KT P6SM VCSH BKN050=



000
FTUS46 KSTO 311100
TAFMHR
TAF
KMHR 311121Z 3112/0112 14006KT P6SM BKN100
     FM311900 21008KT P6SM -RA OVC050
      TEMPO 3121/0101 3SM RA OVC015
     FM010300 16007KT P6SM -SHRA OVC050=



000
FTUS46 KSTO 311100
TAFSAC
TAF
KSAC 311121Z 3112/0112 VRB05KT P6SM BKN100
     FM311900 21009KT P6SM -RA OVC050
      TEMPO 3121/0101 3SM RA OVC015
     FM010300 19007KT P6SM -SHRA OVC050=



000
FTUS46 KSTO 311100
TAFSMF
TAF
KSMF 311121Z 3112/0112 15008KT P6SM BKN100
     FM311900 19010KT P6SM -RA OVC050
      TEMPO 3121/0101 3SM -RA OVC015
     FM010300 16007KT P6SM -SHRA OVC050=



000
FTUS46 KSTO 311100
TAFRDD
TAF
KRDD 311121Z 3112/0112 18008KT P6SM -RA OVC050
      TEMPO 3115/3118 4SM RA OVC015
     FM312200 18008KT P6SM -SHRA SCT020 BKN030
     FM010200 17005KT P6SM -SHRA OVC050
     FM010600 VRB04KT P6SM VCSH BKN050=



000
FTUS46 KSTO 311100
TAFSCK
TAF
KSCK 311121Z 3112/0112 VRB05KT P6SM BKN150
     FM312100 30009KT P6SM -RA OVC050
      TEMPO 3121/0101 3SM RA OVC015
     FM010300 27011KT P6SM -SHRA OVC050=



000
FTUS46 KSTO 310500
TAFMHR
TAF
KMHR 310520Z 3106/0106 16005KT P6SM BKN120
     FM310900 17006KT P6SM OVC050
     FM311800 15009KT P6SM -RA OVC025
      TEMPO 3119/3123 3SM RA OVC015
     FM010300 26007KT P6SM -SHRA OVC050=



000
FTUS46 KSTO 310500
TAFRDD
TAF
KRDD 310520Z 3106/0106 VRB04KT P6SM OVC120
     FM311200 17010KT P6SM -RA OVC025
      TEMPO 3115/3118 3SM RA OVC015
     FM312200 16008KT P6SM -SHRA SCT020 BKN030
     FM010200 17005KT P6SM -SHRA OVC050=



000
FTUS46 KSTO 310500
TAFSAC
TAF
KSAC 310520Z 3106/0106 19005KT P6SM BKN120
     FM311000 15008KT P6SM OVC050
     FM311800 16009KT P6SM -RA OVC025
      TEMPO 3119/3123 3SM RA OVC015
     FM010300 26007KT P6SM -SHRA OVC050=



000
FTUS46 KSTO 310500
TAFSCK
TAF
KSCK 310520Z 3106/0106 VRB04KT P6SM BKN200
     FM310900 17006KT P6SM OVC050
     FM311900 16009KT P6SM -RA OVC025
      TEMPO 3120/3124 3SM RA OVC015
     FM010300 27011KT P6SM -SHRA OVC050=



000
FTUS46 KSTO 310500
TAFRBL
TAF
KRBL 310520Z 3106/0106 19005KT P6SM OVC120
     FM311200 16012KT P6SM -RA OVC025
      TEMPO 3115/3118 3SM RA OVC015
     FM312200 16008KT P6SM -SHRA SCT020 OVC050
     FM010200 17005KT P6SM -SHRA OVC050=



000
FTUS46 KSTO 310500
TAFSMF
TAF
KSMF 310520Z 3106/0106 18007KT P6SM BKN120
     FM311000 15008KT P6SM OVC050
     FM311800 16010KT P6SM -RA OVC025
      TEMPO 3119/3123 3SM -RA OVC015
     FM010200 20005KT P6SM -SHRA OVC050=



000
FTUS46 KSTO 302300
TAFMHR
TAF
KMHR 302340Z 3100/3124 19005KT P6SM SCT150 BKN200
     FM310800 16010KT P6SM SCT015 BKN030
     FM311500 15009KT 4SM -RA SCT010 OVC020=



000
FTUS46 KSTO 302300
TAFRDD
TAF
KRDD 302340Z 3100/3124 18005KT P6SM SCT120 OVC200
     FM311000 17011KT P6SM VCSH SCT020 BKN035
     FM311300 17011KT 3SM -RA SCT010 OVC020
      TEMPO 3114/3118 2SM RA OVC010
     FM312200 16006KT P6SM -SHRA SCT020 BKN030=



000
FTUS46 KSTO 302300
TAFSCK
TAF
KSCK 302340Z 3100/3124 29007KT P6SM SCT150 BKN200
     FM310900 14007KT P6SM SCT010 BKN030
     FM311900 15009KT 4SM -RA SCT010 OVC020=



000
FTUS46 KSTO 302300
TAFRBL
TAF
KRBL 302340Z 3100/3124 16008KT P6SM SCT120 BKN200
     FM311000 16012KT P6SM VCSH SCT020 BKN035
     FM311300 18011KT 3SM -RA SCT010 OVC020
      TEMPO 3114/3118 2SM RA OVC010
     FM312200 16006KT P6SM -SHRA SCT020 BKN030=



000
FTUS46 KSTO 302300
TAFSAC
TAF
KSAC 302340Z 3100/3124 19005KT P6SM SCT150 BKN200
     FM310800 16010KT P6SM SCT015 BKN030
     FM311500 15009KT 4SM -RA SCT010 OVC020=



000
FTUS46 KSTO 302300
TAFSMF
TAF
KSMF 302340Z 3100/3124 18007KT P6SM SCT150 BKN200
     FM310800 16010KT P6SM SCT015 BKN030
     FM311500 16009KT 4SM -RA SCT010 OVC020=



000
FTUS46 KSTO 301700 RRA
TAFRDD
TAF
KRDD 301751Z 3018/3118 35005KT P6SM BKN200
     FM302200 18007KT P6SM BKN200
     FM311000 18011KT P6SM VCSH SCT020 BKN035
     FM311300 18011KT 3SM -RA SCT010 OVC020=



000
FTUS46 KSTO 301700 RRA
TAFRBL
TAF
KRBL 301751Z 3018/3118 33005KT P6SM BKN200
     FM302000 16008KT P6SM BKN200
     FM311000 16012KT P6SM VCSH SCT020 BKN035
     FM311300 18011KT 3SM -RA SCT010 OVC020=



000
FTUS46 KSTO 301700 RRA
TAFSCK
TAF
KSCK 301751Z 3018/3118 VRB04KT P6SM BKN250
     FM302200 29007KT P6SM BKN200
     FM311000 14007KT P6SM SCT020 BKN050 OVC080=



000
FTUS46 KSTO 301700 RRA
TAFSAC
TAF
KSAC 301751Z 3018/3118 VRB03KT P6SM BKN250
     FM302000 19005KT P6SM SCT150 BKN200
     FM311000 16010KT P6SM SCT040 BKN060
     FM311500 14009KT 5SM -RA SCT020 BKN030 OVC050=



000
FTUS46 KSTO 301700 RRA
TAFSMF
TAF
KSMF 301751Z 3018/3118 VRB04KT P6SM BKN250
     FM302000 18007KT P6SM SCT150 BKN200
     FM311000 16010KT P6SM SCT040 BKN060
     FM311500 14010KT 5SM -RA SCT020 BKN030 OVC050=



000
FTUS46 KSTO 301700 RRA
TAFMHR
TAF
KMHR 301751Z 3018/3118 VRB03KT P6SM BKN250
     FM302000 19005KT P6SM SCT150 BKN200
     FM311000 16010KT P6SM SCT040 BKN060
     FM311500 14009KT 5SM -RA SCT020 BKN030 OVC050=



000
FTUS46 KSTO 301700 RRA
TAFSCK
TAF
KSCK 301751Z 3018/3118 VRB04KT P6SM BKN250
     FM302200 29007KT P6SM BKN200
     FM311000 14007KT P6SM SCT020 BKN050 OVC080=



000
FTUS46 KSTO 301700 RRA
TAFRBL
TAF
KRBL 301751Z 3018/3118 33005KT P6SM BKN200
     FM302000 16008KT P6SM BKN200
     FM311000 16012KT P6SM VCSH SCT020 BKN035
     FM311300 18011KT 3SM -RA SCT010 OVC020=



000
FTUS46 KSTO 301700 RRA
TAFRDD
TAF
KRDD 301751Z 3018/3118 35005KT P6SM BKN200
     FM302200 18007KT P6SM BKN200
     FM311000 18011KT P6SM VCSH SCT020 BKN035
     FM311300 18011KT 3SM -RA SCT010 OVC020=



000
FTUS46 KSTO 301700 RRA
TAFSAC
TAF
KSAC 301751Z 3018/3118 VRB03KT P6SM BKN250
     FM302000 19005KT P6SM SCT150 BKN200
     FM311000 16010KT P6SM SCT040 BKN060
     FM311500 14009KT 5SM -RA SCT020 BKN030 OVC050=



000
FTUS46 KSTO 301700 RRA
TAFSMF
TAF
KSMF 301751Z 3018/3118 VRB04KT P6SM BKN250
     FM302000 18007KT P6SM SCT150 BKN200
     FM311000 16010KT P6SM SCT040 BKN060
     FM311500 14010KT 5SM -RA SCT020 BKN030 OVC050=



000
FTUS46 KSTO 301700 RRA
TAFMHR
TAF
KMHR 301751Z 3018/3118 VRB03KT P6SM BKN250
     FM302000 19005KT P6SM SCT150 BKN200
     FM311000 16010KT P6SM SCT040 BKN060
     FM311500 14009KT 5SM -RA SCT020 BKN030 OVC050=



000
FTUS46 KSTO 301100
TAFRBL
TAF
KRBL 301120Z 3012/3112 33005KT P6SM BKN200
     FM302000 16008KT P6SM BKN200
     FM311000 16012KT P6SM VCSH BKN050=



000
FTUS46 KSTO 301100
TAFSCK
TAF
KSCK 301120Z 3012/3112 VRB04KT P6SM BKN250
     FM302200 29007KT P6SM BKN200=



000
FTUS46 KSTO 301100
TAFSMF
TAF
KSMF 301120Z 3012/3112 VRB04KT P6SM BKN250
     FM302000 18007KT P6SM BKN200=



000
FTUS46 KSTO 301100
TAFSAC
TAF
KSAC 301120Z 3012/3112 VRB03KT P6SM BKN250
     FM302000 19005KT P6SM BKN200=



000
FTUS46 KSTO 301100
TAFMHR
TAF
KMHR 301120Z 3012/3112 VRB03KT P6SM BKN250
     FM302000 19005KT P6SM BKN200=



000
FTUS46 KSTO 301100
TAFRDD
TAF
KRDD 301120Z 3012/3112 35005KT P6SM BKN200
     FM302200 18007KT P6SM BKN200
     FM311000 18011KT P6SM VCSH BKN050=



000
FTUS46 KSTO 300500
TAFMHR
TAF
KMHR 300530Z 3006/3106 VRB03KT P6SM FEW250
     FM301600 19005KT P6SM BKN200=



000
FTUS46 KSTO 300500
TAFSMF
TAF
KSMF 300530Z 3006/3106 31005KT P6SM FEW250
     FM301600 17007KT P6SM BKN200=



000
FTUS46 KSTO 300500
TAFRBL
TAF
KRBL 300530Z 3006/3106 33005KT P6SM SCT250
     FM301700 16005KT P6SM OVC200=



000
FTUS46 KSTO 300500
TAFSAC
TAF
KSAC 300530Z 3006/3106 VRB03KT P6SM FEW250
     FM301600 19005KT P6SM BKN200=



000
FTUS46 KSTO 300500
TAFRDD
TAF
KRDD 300530Z 3006/3106 35005KT P6SM SCT250
     FM301800 17005KT P6SM OVC200=



000
FTUS46 KSTO 300500
TAFSCK
TAF
KSCK 300530Z 3006/3106 VRB04KT P6SM SKC
     FM301700 15005KT P6SM BKN200
     FM310000 25007KT P6SM BKN200=



000
FTUS46 KSTO 292300
TAFMHR
TAF
KMHR 292320Z 3000/3024 VRB03KT P6SM FEW250
     FM301600 19005KT P6SM SCT150 BKN200=



000
FTUS46 KSTO 292300
TAFRDD
TAF
KRDD 292320Z 3000/3024 35005KT P6SM SCT250
     FM301800 17005KT P6SM BKN150 OVC200=



000
FTUS46 KSTO 292300
TAFSAC
TAF
KSAC 292320Z 3000/3024 VRB03KT P6SM FEW250
     FM301600 19005KT P6SM SCT150 BKN200=



000
FTUS46 KSTO 292300
TAFSMF
TAF
KSMF 292320Z 3000/3024 31005KT P6SM FEW250
     FM301600 17005KT P6SM SCT150 OVC200=



000
FTUS46 KSTO 292300
TAFRBL
TAF
KRBL 292320Z 3000/3024 33005KT P6SM SCT250
     FM301700 16005KT P6SM BKN150 OVC200=



000
FTUS46 KSTO 292300
TAFSCK
TAF
KSCK 292320Z 3000/3024 VRB04KT P6SM SKC
     FM301700 15005KT P6SM SCT150 BKN200=



000
FTUS46 KSTO 291700
TAFSCK
TAF
KSCK 291733Z 2918/3018 VRB04KT P6SM SKC=



000
FTUS46 KSTO 291700
TAFRDD
TAF
KRDD 291733Z 2918/3018 35005KT P6SM SCT250=



000
FTUS46 KSTO 291700
TAFRBL
TAF
KRBL 291733Z 2918/3018 33005KT P6SM SCT250=



000
FTUS46 KSTO 291700
TAFSAC
TAF
KSAC 291733Z 2918/3018 VRB03KT P6SM FEW250=



000
FTUS46 KSTO 291700
TAFSMF
TAF
KSMF 291733Z 2918/3018 31005KT P6SM FEW250=



000
FTUS46 KSTO 291700
TAFMHR
TAF
KMHR 291733Z 2918/3018 VRB03KT P6SM FEW250=



000
FTUS46 KSTO 291100
TAFMHR
TAF
KMHR 291138Z 2912/3012 VRB05KT P6SM FEW250=



000
FTUS46 KSTO 291100
TAFRBL
TAF
KRBL 291138Z 2912/3012 35005KT P6SM SCT250
     FM291500 VRB05KT P6SM SCT250
     FM300300 31004KT P6SM SCT250=



000
FTUS46 KSTO 291100
TAFSAC
TAF
KSAC 291138Z 2912/3012 VRB05KT P6SM FEW250=



000
FTUS46 KSTO 291100
TAFSCK
TAF
KSCK 291138Z 2912/3012 VRB05KT P6SM SKC=



000
FTUS46 KSTO 291100
TAFRDD
TAF
KRDD 291138Z 2912/3012 VRB05KT P6SM SCT250=



000
FTUS46 KSTO 291100
TAFSMF
TAF
KSMF 291138Z 2912/3012 VRB05KT P6SM FEW250=



    US Dept of Commerce
    National Oceanic and Atmospheric Administration
    National Weather Service
    1325 East West Highway
    Silver Spring, MD 20910
    Page Author: NWS Internet Services Team
Disclaimer
Information Quality
Credits
Glossary
Privacy Policy
Freedom of Information Act (FOIA)
About Us
Career Opportunities